createdAt,value
2018-06-05T00:01:03.417Z,16.00
2018-06-05T00:03:36.601Z,16.00
2018-06-05T00:06:14.980Z,16.00
2018-06-05T00:08:47.417Z,16.00
2018-06-05T00:11:20.760Z,16.00
2018-06-05T00:13:52.030Z,16.00
2018-06-05T00:16:20.321Z,16.00
2018-06-05T00:18:48.558Z,15.90
2018-06-05T00:21:23.442Z,15.90
2018-06-05T00:23:51.694Z,15.90
2018-06-05T00:26:24.257Z,15.90
2018-06-05T00:28:52.444Z,15.90
2018-06-05T00:31:30.873Z,15.80
2018-06-05T00:34:02.097Z,15.80
2018-06-05T00:36:33.324Z,15.80
2018-06-05T00:39:01.844Z,15.80
2018-06-05T00:41:30.283Z,15.80
2018-06-05T00:43:58.501Z,15.80
2018-06-05T00:46:29.499Z,15.70
2018-06-05T00:49:00.124Z,15.70
2018-06-05T00:51:42.501Z,15.70
2018-06-05T00:54:15.305Z,15.60
2018-06-05T00:56:48.839Z,15.60
2018-06-05T00:59:17.173Z,15.60
2018-06-05T01:01:51.703Z,15.60
2018-06-05T01:04:20.044Z,15.60
2018-06-05T01:06:54.705Z,15.60
2018-06-05T01:09:22.895Z,15.60
2018-06-05T01:11:54.180Z,15.50
2018-06-05T01:14:25.627Z,15.50
2018-06-05T01:16:57.926Z,15.50
2018-06-05T01:19:26.225Z,15.50
2018-06-05T01:21:54.457Z,15.40
2018-06-05T01:24:29.545Z,15.40
2018-06-05T01:27:10.803Z,15.50
2018-06-05T01:29:39.357Z,15.40
2018-06-05T01:32:07.618Z,15.40
2018-06-05T01:34:35.909Z,15.40
2018-06-05T01:37:04.138Z,15.40
2018-06-05T01:39:38.917Z,15.40
2018-06-05T01:42:07.268Z,15.40
2018-06-05T01:44:41.791Z,15.30
2018-06-05T01:47:10.042Z,15.30
2018-06-05T01:49:45.022Z,15.30
2018-06-05T01:52:13.558Z,15.30
2018-06-05T01:54:41.963Z,15.30
2018-06-05T01:57:10.349Z,15.30
2018-06-05T01:59:38.600Z,15.20
2018-06-05T02:02:19.201Z,15.20
2018-06-05T02:04:47.526Z,15.20
2018-06-05T02:07:16.007Z,15.20
2018-06-05T02:09:46.961Z,15.20
2018-06-05T02:12:15.485Z,15.20
2018-06-05T02:14:46.663Z,15.10
2018-06-05T02:17:15.176Z,15.10
2018-06-05T02:19:43.430Z,15.10
2018-06-05T02:22:18.927Z,15.10
2018-06-05T02:24:55.960Z,15.10
2018-06-05T02:27:30.124Z,15.10
2018-06-05T02:29:58.599Z,15.10
2018-06-05T02:32:26.845Z,15.10
2018-06-05T02:34:55.032Z,15.10
2018-06-05T02:37:29.862Z,15.10
2018-06-05T02:39:58.238Z,15.10
2018-06-05T02:42:35.985Z,15.10
2018-06-05T02:45:04.541Z,15.10
2018-06-05T02:47:35.034Z,15.10
2018-06-05T02:50:03.956Z,15.10
2018-06-05T02:52:35.163Z,15.00
2018-06-05T02:57:31.531Z,15.00
2018-06-05T03:00:04.911Z,15.00
2018-06-05T03:02:39.551Z,15.00
2018-06-05T03:05:08.362Z,15.10
2018-06-05T03:07:39.542Z,15.10
2018-06-05T03:10:07.786Z,15.10
2018-06-05T03:12:39.001Z,15.10
2018-06-05T03:15:19.662Z,15.10
2018-06-05T03:17:52.807Z,15.20
2018-06-05T03:20:23.994Z,15.10
2018-06-05T03:22:52.388Z,15.10
2018-06-05T03:25:20.640Z,15.00
2018-06-05T03:27:55.541Z,15.00
2018-06-05T03:30:23.957Z,15.10
2018-06-05T03:32:52.228Z,15.10
2018-06-05T03:35:20.621Z,15.10
2018-06-05T03:37:53.943Z,15.10
2018-06-05T03:40:28.557Z,15.10
2018-06-05T03:42:59.569Z,15.20
2018-06-05T03:45:30.048Z,15.20
2018-06-05T03:48:00.227Z,15.20
2018-06-05T03:50:28.492Z,15.20
2018-06-05T03:52:59.501Z,15.20
2018-06-05T03:55:37.957Z,15.20
2018-06-05T03:58:09.479Z,15.20
2018-06-05T04:00:41.851Z,15.20
2018-06-05T04:03:21.844Z,15.30
2018-06-05T04:08:22.581Z,15.30
2018-06-05T04:10:54.793Z,15.30
2018-06-05T04:13:25.818Z,15.30
2018-06-05T04:15:54.081Z,15.30
2018-06-05T04:18:26.498Z,15.40
2018-06-05T04:20:57.534Z,15.40
2018-06-05T04:23:35.605Z,15.40
2018-06-05T04:26:04.035Z,15.40
2018-06-05T04:28:32.253Z,15.40
2018-06-05T04:31:07.040Z,15.40
2018-06-05T04:33:35.351Z,15.40
2018-06-05T04:36:13.201Z,15.40
2018-06-05T04:38:43.539Z,15.50
2018-06-05T04:41:11.848Z,15.50
2018-06-05T04:43:40.050Z,15.60
2018-06-05T04:46:15.384Z,15.60
2018-06-05T04:48:55.324Z,15.60
2018-06-05T04:51:23.691Z,15.60
2018-06-05T04:53:52.309Z,15.60
2018-06-05T04:56:20.541Z,15.60
2018-06-05T04:58:51.587Z,15.60
2018-06-05T05:01:22.851Z,15.60
2018-06-05T05:04:07.895Z,15.60
2018-06-05T05:06:42.325Z,15.60
2018-06-05T05:09:10.676Z,15.60
2018-06-05T05:11:45.292Z,15.70
2018-06-05T05:14:13.491Z,15.70
2018-06-05T05:16:49.930Z,15.70
2018-06-05T05:19:21.234Z,15.70
2018-06-05T05:21:54.814Z,15.70
2018-06-05T05:24:29.773Z,15.70
2018-06-05T05:26:58.013Z,15.70
2018-06-05T05:29:31.228Z,15.80
2018-06-05T05:32:07.545Z,15.80
2018-06-05T05:34:38.197Z,15.90
2018-06-05T05:37:11.312Z,15.90
2018-06-05T05:39:49.764Z,15.80
2018-06-05T05:42:25.862Z,15.80
2018-06-05T05:44:54.427Z,15.80
2018-06-05T05:47:22.620Z,15.90
2018-06-05T05:49:53.989Z,15.90
2018-06-05T05:52:33.877Z,15.90
2018-06-05T05:55:02.217Z,15.90
2018-06-05T05:57:30.489Z,15.90
2018-06-05T06:00:02.987Z,15.90
2018-06-05T06:02:31.476Z,15.80
2018-06-05T06:05:02.484Z,15.70
2018-06-05T06:07:33.837Z,15.60
2018-06-05T06:10:04.195Z,15.60
2018-06-05T06:12:32.417Z,15.50
2018-06-05T06:15:00.697Z,15.50
2018-06-05T06:17:35.483Z,15.50
2018-06-05T06:20:03.768Z,15.50
2018-06-05T06:22:36.279Z,15.40
2018-06-05T06:27:42.269Z,15.50
2018-06-05T06:30:10.551Z,15.60
2018-06-05T06:32:45.129Z,15.60
2018-06-05T06:35:16.653Z,15.60
2018-06-05T06:37:44.886Z,15.50
2018-06-05T06:40:17.146Z,15.50
2018-06-05T06:42:48.600Z,15.50
2018-06-05T06:45:19.849Z,15.50
2018-06-05T06:47:48.345Z,15.50
2018-06-05T06:50:16.790Z,15.60
2018-06-05T06:52:45.190Z,15.60
2018-06-05T06:55:13.462Z,15.70
2018-06-05T06:57:51.167Z,15.70
2018-06-05T07:00:19.431Z,15.70
2018-06-05T07:02:52.759Z,15.70
2018-06-05T07:05:25.901Z,15.70
2018-06-05T07:07:59.157Z,15.70
2018-06-05T07:10:27.697Z,15.60
2018-06-05T07:12:58.009Z,15.60
2018-06-05T07:15:26.621Z,15.70
2018-06-05T07:17:55.152Z,15.60
2018-06-05T07:20:23.463Z,15.70
2018-06-05T07:22:51.753Z,15.70
2018-06-05T07:25:24.273Z,15.80
2018-06-05T07:27:52.611Z,15.70
2018-06-05T07:30:28.833Z,15.80
2018-06-05T07:33:06.201Z,15.80
2018-06-05T07:35:39.722Z,15.90
2018-06-05T07:38:13.302Z,15.90
2018-06-05T07:40:45.705Z,15.90
2018-06-05T07:43:16.934Z,15.90
2018-06-05T07:45:57.648Z,16.00
2018-06-05T07:48:33.166Z,16.10
2018-06-05T07:51:05.725Z,16.10
2018-06-05T07:53:33.991Z,16.10
2018-06-05T07:56:08.549Z,16.10
2018-06-05T07:58:45.401Z,16.20
2018-06-05T08:01:13.826Z,16.30
2018-06-05T08:03:42.060Z,16.30
2018-06-05T08:06:15.815Z,16.30
2018-06-05T08:08:44.156Z,16.30
2018-06-05T08:11:12.425Z,16.30
2018-06-05T08:13:50.307Z,16.40
2018-06-05T08:16:18.628Z,16.40
2018-06-05T08:18:47.123Z,16.40
2018-06-05T08:21:15.549Z,16.40
2018-06-05T08:23:43.878Z,16.50
2018-06-05T08:26:15.119Z,16.60
2018-06-05T08:28:47.633Z,16.60
2018-06-05T08:31:22.184Z,16.50
2018-06-05T08:33:56.819Z,16.50
2018-06-05T08:36:25.010Z,16.50
2018-06-05T08:39:01.362Z,16.60
2018-06-05T08:41:32.685Z,16.80
2018-06-05T08:44:09.604Z,16.80
2018-06-05T08:46:37.865Z,17.00
2018-06-05T08:49:10.376Z,17.00
2018-06-05T08:51:43.433Z,17.00
2018-06-05T08:54:14.849Z,17.10
2018-06-05T08:56:45.197Z,17.10
2018-06-05T08:59:13.366Z,17.20
2018-06-05T09:05:18.055Z,17.10
2018-06-05T09:07:46.460Z,16.80
2018-06-05T09:10:14.661Z,16.70
2018-06-05T09:12:46.100Z,16.70
2018-06-05T09:15:22.793Z,16.60
2018-06-05T09:17:51.070Z,16.50
2018-06-05T09:20:28.938Z,16.40
2018-06-05T09:23:16.873Z,16.40
2018-06-05T09:25:45.526Z,16.50
2018-06-05T09:28:13.782Z,16.40
2018-06-05T09:30:46.568Z,16.40
2018-06-05T09:33:15.241Z,16.40
2018-06-05T09:35:43.814Z,16.50
2018-06-05T09:38:17.520Z,16.70
2018-06-05T09:40:52.150Z,16.70
2018-06-05T09:43:20.441Z,16.90
2018-06-05T09:45:51.650Z,17.20
2018-06-05T09:48:23.015Z,17.10
2018-06-05T09:50:52.013Z,17.30
2018-06-05T09:53:22.416Z,17.50
2018-06-05T09:55:53.625Z,17.60
2018-06-05T09:58:29.863Z,17.80
2018-06-05T10:00:58.250Z,17.90
2018-06-05T10:03:26.498Z,18.00
2018-06-05T10:05:54.802Z,18.10
2018-06-05T10:08:25.988Z,18.20
2018-06-05T10:11:05.998Z,18.30
2018-06-05T10:13:34.232Z,18.40
2018-06-05T10:16:08.827Z,18.50
2018-06-05T10:18:37.128Z,18.50
2018-06-05T10:21:11.996Z,18.60
2018-06-05T10:23:40.241Z,18.70
2018-06-05T10:26:08.644Z,18.80
2018-06-05T10:28:41.094Z,18.90
2018-06-05T10:31:09.285Z,19.00
2018-06-05T10:33:38.380Z,19.10
2018-06-05T10:36:06.837Z,19.00
2018-06-05T10:38:35.457Z,19.20
2018-06-05T10:41:03.806Z,19.30
2018-06-05T10:43:32.299Z,19.40
2018-06-05T10:46:00.630Z,19.40
2018-06-05T10:48:33.427Z,19.10
2018-06-05T10:51:01.926Z,19.00
2018-06-05T10:53:30.518Z,19.00
2018-06-05T10:56:01.464Z,19.10
2018-06-05T10:58:36.055Z,19.20
2018-06-05T11:01:04.685Z,19.20
2018-06-05T11:03:32.943Z,19.20
2018-06-05T11:06:07.668Z,19.10
2018-06-05T11:08:35.939Z,19.20
2018-06-05T11:11:07.770Z,19.20
2018-06-05T11:13:35.961Z,19.10
2018-06-05T11:16:09.474Z,19.20
2018-06-05T11:18:37.746Z,19.20
2018-06-05T11:21:13.038Z,19.40
2018-06-05T11:23:43.020Z,19.40
2018-06-05T11:26:12.922Z,19.30
2018-06-05T11:28:43.799Z,19.40
2018-06-05T11:31:12.106Z,19.60
2018-06-05T11:33:41.220Z,19.70
2018-06-05T11:36:10.228Z,19.90
2018-06-05T11:38:43.710Z,20.10
2018-06-05T11:41:13.965Z,20.20
2018-06-05T11:43:46.684Z,20.50
2018-06-05T11:46:14.968Z,20.70
2018-06-05T11:48:46.037Z,20.80
2018-06-05T11:53:46.662Z,20.80
2018-06-05T11:56:14.860Z,20.80
2018-06-05T11:58:50.280Z,20.80
2018-06-05T12:01:28.210Z,20.90
2018-06-05T12:03:56.813Z,21.10
2018-06-05T12:06:25.299Z,21.20
2018-06-05T12:08:53.752Z,21.30
2018-06-05T12:11:22.233Z,21.30
2018-06-05T12:13:50.510Z,21.30
2018-06-05T12:16:18.888Z,21.30
2018-06-05T12:19:02.659Z,21.00
2018-06-05T12:21:31.119Z,21.10
2018-06-05T12:23:59.581Z,21.20
2018-06-05T12:26:28.009Z,21.40
2018-06-05T12:28:56.229Z,21.60
2018-06-05T12:31:31.079Z,21.70
2018-06-05T12:33:59.310Z,21.60
2018-06-05T12:36:27.717Z,21.80
2018-06-05T12:39:00.212Z,22.20
2018-06-05T12:41:32.645Z,22.50
2018-06-05T12:44:05.967Z,22.50
2018-06-05T12:46:40.678Z,22.40
2018-06-05T12:49:09.079Z,22.60
2018-06-05T12:51:42.522Z,22.90
2018-06-05T12:54:13.189Z,23.10
2018-06-05T12:56:42.274Z,23.30
2018-06-05T12:59:17.628Z,23.60
2018-06-05T13:01:53.174Z,23.80
2018-06-05T13:04:27.712Z,23.90
2018-06-05T13:07:04.946Z,23.90
2018-06-05T13:09:37.998Z,24.10
2018-06-05T13:12:08.407Z,24.10
2018-06-05T13:14:36.795Z,24.30
2018-06-05T13:17:05.841Z,24.40
2018-06-05T13:19:47.868Z,24.60
2018-06-05T13:24:48.308Z,24.10
2018-06-05T13:27:23.263Z,24.30
2018-06-05T13:29:53.509Z,24.30
2018-06-05T13:32:21.752Z,24.30
2018-06-05T13:34:55.266Z,24.30
2018-06-05T13:37:31.089Z,24.30
2018-06-05T13:39:59.094Z,24.20
2018-06-05T13:42:33.691Z,24.30
2018-06-05T13:45:04.610Z,24.50
2018-06-05T13:47:32.745Z,24.70
2018-06-05T13:50:00.751Z,24.80
2018-06-05T13:52:38.758Z,24.60
2018-06-05T13:55:06.790Z,24.30
2018-06-05T14:00:20.117Z,24.10
2018-06-05T14:02:48.120Z,24.10
2018-06-05T14:05:28.676Z,24.30
2018-06-05T14:07:59.490Z,24.60
2018-06-05T14:10:27.463Z,24.80
2018-06-05T14:12:59.673Z,25.00
2018-06-05T14:15:27.869Z,25.20
2018-06-05T14:17:55.915Z,25.30
2018-06-05T14:20:28.197Z,25.30
2018-06-05T14:22:56.394Z,25.20
2018-06-05T14:25:24.410Z,24.90
2018-06-05T14:27:55.213Z,24.60
2018-06-05T14:30:25.308Z,24.60
2018-06-05T14:32:55.409Z,24.60
2018-06-05T14:35:23.678Z,24.80
2018-06-05T14:37:54.588Z,24.90
2018-06-05T14:40:25.206Z,24.80
2018-06-05T14:43:03.437Z,24.60
2018-06-05T14:45:31.509Z,24.60
2018-06-05T14:48:06.060Z,24.80
2018-06-05T14:50:34.112Z,24.80
2018-06-05T14:53:04.465Z,24.90
2018-06-05T14:55:34.685Z,24.80
2018-06-05T14:58:02.718Z,24.60
2018-06-05T15:00:35.770Z,24.80
2018-06-05T15:03:03.954Z,24.70
2018-06-05T15:05:31.989Z,24.80
2018-06-05T15:08:10.158Z,24.80
2018-06-05T15:10:38.163Z,24.90
2018-06-05T15:13:10.562Z,24.90
2018-06-05T15:15:43.665Z,24.80
2018-06-05T15:18:12.034Z,24.70
2018-06-05T15:20:40.294Z,24.70
2018-06-05T15:23:08.581Z,24.80
2018-06-05T15:25:43.314Z,25.00
2018-06-05T15:28:11.772Z,25.20
2018-06-05T15:30:39.946Z,25.30
2018-06-05T15:33:08.953Z,25.20
2018-06-05T15:35:37.238Z,25.30
2018-06-05T15:38:05.595Z,25.40
2018-06-05T15:40:38.046Z,25.50
2018-06-05T15:43:12.574Z,25.30
2018-06-05T15:45:45.801Z,25.20
2018-06-05T15:48:18.867Z,25.10
2018-06-05T15:50:49.149Z,25.00
2018-06-05T15:53:17.349Z,25.00
2018-06-05T15:55:48.541Z,24.70
2018-06-05T15:58:28.112Z,24.60
2018-06-05T16:00:59.060Z,24.90
2018-06-05T16:03:27.034Z,25.00
2018-06-05T16:06:00.293Z,24.80
2018-06-05T16:08:31.204Z,24.80
2018-06-05T16:11:09.462Z,24.80
2018-06-05T16:13:43.946Z,24.80
2018-06-05T16:16:14.718Z,24.70
2018-06-05T16:18:42.750Z,24.60
2018-06-05T16:21:14.913Z,24.60
2018-06-05T16:23:42.924Z,24.70
2018-06-05T16:26:17.259Z,24.80
2018-06-05T16:28:49.120Z,24.80
2018-06-05T16:31:17.443Z,24.70
2018-06-05T16:33:48.567Z,24.70
2018-06-05T16:36:20.928Z,24.80
2018-06-05T16:39:01.569Z,24.80
2018-06-05T16:41:32.556Z,24.80
2018-06-05T16:44:01.370Z,24.70
2018-06-05T16:46:34.568Z,24.70
2018-06-05T16:49:02.794Z,24.60
2018-06-05T16:51:31.046Z,24.70
2018-06-05T16:54:06.462Z,24.60
2018-06-05T16:56:39.636Z,24.60
2018-06-05T16:59:10.154Z,24.70
2018-06-05T17:01:41.870Z,24.70
2018-06-05T17:04:22.782Z,24.70
2018-06-05T17:06:50.948Z,24.80
2018-06-05T17:09:19.235Z,24.80
2018-06-05T17:11:51.621Z,24.80
2018-06-05T17:14:24.314Z,24.70
2018-06-05T17:16:55.309Z,24.50
2018-06-05T17:19:26.964Z,24.40
2018-06-05T17:22:00.151Z,24.50
2018-06-05T17:24:30.489Z,24.50
2018-06-05T17:26:58.851Z,24.50
2018-06-05T17:29:27.226Z,24.40
2018-06-05T17:31:55.496Z,24.20
2018-06-05T17:34:26.442Z,24.10
2018-06-05T17:36:54.814Z,24.00
2018-06-05T17:39:23.220Z,24.00
2018-06-05T17:41:55.584Z,23.90
2018-06-05T17:44:33.048Z,23.90
2018-06-05T17:47:06.358Z,23.80
2018-06-05T17:49:41.604Z,23.80
2018-06-05T17:52:11.951Z,23.70
2018-06-05T17:54:42.951Z,23.80
2018-06-05T17:57:11.028Z,23.80
2018-06-05T17:59:39.063Z,23.70
2018-06-05T18:02:07.177Z,23.70
2018-06-05T18:04:47.977Z,23.70
2018-06-05T18:07:16.003Z,23.70
2018-06-05T18:09:46.796Z,23.70
2018-06-05T18:12:19.371Z,23.70
2018-06-05T18:14:47.356Z,23.60
2018-06-05T18:17:17.623Z,23.60
2018-06-05T18:19:45.686Z,23.50
2018-06-05T18:22:15.991Z,23.50
2018-06-05T18:24:49.117Z,23.40
2018-06-05T18:27:19.299Z,23.40
2018-06-05T18:29:47.315Z,23.40
2018-06-05T18:32:18.216Z,23.30
2018-06-05T18:34:46.618Z,23.20
2018-06-05T18:37:17.508Z,23.00
2018-06-05T18:39:45.547Z,23.00
2018-06-05T18:42:25.272Z,23.00
2018-06-05T18:44:53.273Z,22.90
2018-06-05T18:47:25.841Z,22.80
2018-06-05T18:50:07.719Z,22.80
2018-06-05T18:52:35.834Z,22.60
2018-06-05T18:55:06.699Z,22.50
2018-06-05T18:57:34.729Z,22.40
2018-06-05T19:00:09.672Z,22.30
2018-06-05T19:02:37.886Z,22.20
2018-06-05T19:05:06.186Z,22.10
2018-06-05T19:07:38.642Z,22.00
2018-06-05T19:10:13.488Z,21.90
2018-06-05T19:12:41.937Z,21.70
2018-06-05T19:15:10.402Z,21.60
2018-06-05T19:17:38.620Z,21.50
2018-06-05T19:20:14.726Z,21.30
2018-06-05T19:22:55.602Z,21.20
2018-06-05T19:25:23.841Z,21.10
2018-06-05T19:27:57.939Z,20.90
2018-06-05T19:30:29.202Z,20.90
2018-06-05T19:32:57.539Z,20.70
2018-06-05T19:35:25.824Z,20.60
2018-06-05T19:37:58.504Z,20.50
2018-06-05T19:40:26.774Z,20.40
2018-06-05T19:42:57.766Z,20.30
2018-06-05T19:45:28.046Z,20.20
2018-06-05T19:47:56.545Z,20.10
2018-06-05T19:50:24.898Z,19.90
2018-06-05T19:52:53.157Z,19.70
2018-06-05T19:55:27.927Z,19.60
2018-06-05T19:57:56.405Z,19.50
2018-06-05T20:00:24.776Z,19.40
2018-06-05T20:02:53.125Z,19.30
2018-06-05T20:05:27.670Z,19.10
2018-06-05T20:08:01.820Z,19.00
2018-06-05T20:10:35.093Z,19.00
2018-06-05T20:13:06.265Z,18.90
2018-06-05T20:15:34.523Z,18.70
2018-06-05T20:18:07.071Z,18.60
2018-06-05T20:20:35.311Z,18.50
2018-06-05T20:23:10.910Z,18.40
2018-06-05T20:25:41.138Z,18.30
2018-06-05T20:28:13.813Z,18.20
2018-06-05T20:30:51.264Z,18.00
2018-06-05T20:33:29.034Z,17.90
2018-06-05T20:35:57.455Z,17.70
2018-06-05T20:38:25.740Z,17.60
2018-06-05T20:40:54.229Z,17.40
2018-06-05T20:43:22.486Z,17.30
2018-06-05T20:45:56.848Z,17.20
2018-06-05T20:48:34.502Z,17.10
2018-06-05T20:51:10.013Z,16.90
2018-06-05T20:53:38.237Z,16.90
2018-06-05T20:56:12.947Z,16.80
2018-06-05T20:58:41.296Z,16.80
2018-06-05T21:01:16.565Z,16.70
2018-06-05T21:03:50.156Z,16.70
2018-06-05T21:06:25.437Z,16.60
2018-06-05T21:08:58.862Z,16.50
2018-06-05T21:11:32.126Z,16.40
2018-06-05T21:14:10.450Z,16.30
2018-06-05T21:16:40.707Z,16.20
2018-06-05T21:19:08.871Z,16.10
2018-06-05T21:21:43.235Z,16.10
2018-06-05T21:24:18.812Z,16.00
2018-06-05T21:26:53.473Z,16.00
2018-06-05T21:29:21.656Z,16.00
2018-06-05T21:31:54.807Z,15.90
2018-06-05T21:37:08.054Z,15.90
2018-06-05T21:39:41.300Z,15.80
2018-06-05T21:42:19.224Z,15.80
2018-06-05T21:44:47.452Z,15.80
2018-06-05T21:47:18.433Z,15.80
2018-06-05T21:49:48.834Z,15.80
2018-06-05T21:52:17.229Z,15.80
2018-06-05T21:54:45.721Z,15.80
2018-06-05T21:57:13.985Z,15.80
2018-06-05T21:59:42.265Z,15.80
2018-06-05T22:02:16.639Z,15.70
2018-06-05T22:04:48.918Z,15.80
2018-06-05T22:07:27.688Z,15.70
2018-06-05T22:10:01.052Z,15.70
2018-06-05T22:15:02.505Z,15.50
2018-06-05T22:17:30.743Z,15.50
2018-06-05T22:19:58.958Z,15.30
2018-06-05T22:22:34.004Z,15.30
2018-06-05T22:25:04.303Z,15.30
2018-06-05T22:27:32.493Z,15.20
2018-06-05T22:30:07.561Z,15.10
2018-06-05T22:32:40.804Z,15.10
2018-06-05T22:35:09.031Z,15.00
2018-06-05T22:37:37.251Z,14.90
2018-06-05T22:40:11.712Z,14.90
2018-06-05T22:42:45.090Z,14.80
2018-06-05T22:45:16.239Z,14.80
2018-06-05T22:47:46.861Z,14.70
2018-06-05T22:50:18.148Z,14.60
2018-06-05T22:52:46.562Z,14.60
2018-06-05T22:55:14.785Z,14.50
2018-06-05T22:57:46.122Z,14.40
2018-06-05T23:00:19.903Z,14.40
2018-06-05T23:02:48.118Z,14.30
2018-06-05T23:05:27.856Z,14.30
2018-06-05T23:07:56.137Z,14.20
2018-06-05T23:10:27.160Z,14.10
2018-06-05T23:13:00.795Z,14.10
2018-06-05T23:15:33.999Z,14.00
2018-06-05T23:18:13.899Z,14.00
2018-06-05T23:20:42.180Z,13.90
2018-06-05T23:23:13.432Z,13.90
2018-06-05T23:25:44.940Z,13.90
2018-06-05T23:28:16.031Z,13.80
2018-06-05T23:30:44.392Z,13.80
2018-06-05T23:33:12.690Z,13.70
2018-06-05T23:35:45.808Z,13.70
2018-06-05T23:38:17.057Z,13.70
2018-06-05T23:40:45.483Z,13.60
2018-06-05T23:43:13.849Z,13.60
2018-06-05T23:45:42.048Z,13.50
2018-06-05T23:48:24.059Z,13.50
2018-06-05T23:51:02.566Z,13.50
2018-06-05T23:53:44.653Z,13.40
2018-06-05T23:56:13.126Z,13.40
2018-06-05T23:58:44.575Z,13.30
